Time;durP1;ratioP1;P1;durP2;ratioP2;P2;SDS_P1;SDS_P2;PMS_P1;PMS_P2;Temp;Humidity;BMP_temperature;BMP_pressure;BME280_temperature;BME280_humidity;BME280_pressure;Samples;Min_cycle;Max_cycle;Signal;HPM_P1;HPM_P2
2022/12/04 00:01:18;;;;;;;48.07;25.23;;;4.20;68.10;;;;;;5036834;28;20075;-62
2022/12/04 00:03:44;;;;;;;47.73;25.40;;;4.20;68.10;;;;;;5035044;28;20327;-62
2022/12/04 00:06:13;;;;;;;47.77;24.20;;;4.20;68.10;;;;;;5036151;28;20045;-62
2022/12/04 00:08:40;;;;;;;51.43;25.40;;;4.20;68.10;;;;;;5035986;28;20030;-62
2022/12/04 00:11:08;;;;;;;51.50;26.43;;;4.20;68.10;;;;;;5036838;28;20034;-62
2022/12/04 00:13:34;;;;;;;51.93;26.30;;;4.20;68.10;;;;;;5035742;28;20048;-62
2022/12/04 00:16:02;;;;;;;49.40;25.27;;;4.30;68.20;;;;;;5034801;28;20017;-62
2022/12/04 00:18:27;;;;;;;53.70;27.03;;;4.30;68.10;;;;;;5035914;28;20477;-62
2022/12/04 00:20:53;;;;;;;54.17;26.53;;;4.20;68.10;;;;;;5035541;28;20124;-62
2022/12/04 00:23:19;;;;;;;52.60;26.13;;;4.20;68.10;;;;;;5035527;28;20037;-62
2022/12/04 00:25:47;;;;;;;51.77;26.50;;;4.20;68.10;;;;;;5035970;28;20116;-62
2022/12/04 00:28:16;;;;;;;49.13;25.37;;;4.20;68.20;;;;;;5035852;28;20025;-62
2022/12/04 00:30:44;;;;;;;48.17;26.10;;;4.20;68.20;;;;;;5035088;28;20481;-62
2022/12/04 00:33:10;;;;;;;48.13;24.73;;;4.10;68.30;;;;;;5034537;28;20025;-62
2022/12/04 00:35:35;;;;;;;50.97;25.83;;;4.20;68.40;;;;;;5035461;28;20030;-62
2022/12/04 00:38:02;;;;;;;51.13;25.00;;;4.20;68.40;;;;;;5051187;28;20095;-62
2022/12/04 00:40:27;;;;;;;53.03;25.23;;;4.20;68.30;;;;;;5035193;28;20032;-63
2022/12/04 00:42:53;;;;;;;48.70;25.30;;;4.20;68.30;;;;;;5034693;28;20041;-63
2022/12/04 00:45:18;;;;;;;52.00;25.47;;;4.20;68.30;;;;;;5034861;28;20053;-62
2022/12/04 00:47:44;;;;;;;52.83;24.77;;;4.20;68.30;;;;;;5033758;28;20455;-62
2022/12/04 00:50:10;;;;;;;48.27;25.43;;;4.20;68.30;;;;;;5035308;28;20099;-62
2022/12/04 00:52:36;;;;;;;53.27;25.87;;;4.20;68.30;;;;;;5033459;28;20346;-62
2022/12/04 00:55:01;;;;;;;54.00;24.87;;;4.20;68.30;;;;;;5036037;28;20024;-62
2022/12/04 00:57:27;;;;;;;50.33;24.30;;;4.20;68.40;;;;;;5035724;28;20045;-62
2022/12/04 00:59:53;;;;;;;52.60;27.00;;;4.20;68.40;;;;;;5034505;28;20040;-62
2022/12/04 01:02:18;;;;;;;52.20;26.40;;;4.20;68.40;;;;;;5035608;28;20030;-62
2022/12/04 01:04:44;;;;;;;50.37;25.93;;;4.20;68.40;;;;;;5034463;28;20367;-62
2022/12/04 01:07:09;;;;;;;50.33;25.10;;;4.20;68.40;;;;;;5035246;28;20033;-62
2022/12/04 01:09:35;;;;;;;50.70;25.93;;;4.20;68.40;;;;;;5036058;28;20432;-62
2022/12/04 01:12:01;;;;;;;53.00;26.03;;;4.20;68.40;;;;;;5034140;28;20035;-62
2022/12/04 01:14:26;;;;;;;47.73;25.63;;;4.20;68.50;;;;;;5036335;28;20095;-62
2022/12/04 01:16:52;;;;;;;52.07;26.67;;;4.20;68.50;;;;;;5035008;28;20022;-62
2022/12/04 01:19:18;;;;;;;48.17;25.60;;;4.20;68.50;;;;;;5036354;28;20032;-62
2022/12/04 01:21:43;;;;;;;51.37;24.97;;;4.20;68.50;;;;;;5033034;28;20046;-62
2022/12/04 01:24:09;;;;;;;46.57;23.40;;;4.20;68.50;;;;;;5035322;28;20040;-62
2022/12/04 01:26:34;;;;;;;53.30;25.93;;;4.20;68.50;;;;;;5032512;28;20034;-62
2022/12/04 01:29:01;;;;;;;50.63;25.23;;;4.20;68.40;;;;;;5034999;28;20324;-62
2022/12/04 01:31:26;;;;;;;51.47;25.23;;;4.20;68.50;;;;;;5033598;28;20034;-62
2022/12/04 01:33:52;;;;;;;51.40;25.03;;;4.20;68.60;;;;;;5035117;28;20087;-62
2022/12/04 01:36:21;;;;;;;49.17;25.03;;;4.10;68.60;;;;;;5035660;28;20109;-62
2022/12/04 01:38:47;;;;;;;49.23;24.77;;;4.20;68.70;;;;;;5034210;28;20366;-62
2022/12/04 01:41:15;;;;;;;50.13;25.63;;;4.20;68.70;;;;;;5034121;28;20442;-62
2022/12/04 01:43:41;;;;;;;55.10;26.80;;;4.10;68.60;;;;;;5034871;28;20366;-62
2022/12/04 01:46:08;;;;;;;50.47;26.80;;;4.20;68.70;;;;;;5034459;28;20112;-62
2022/12/04 01:48:51;;;;;;;51.20;26.43;;;4.20;68.70;;;;;;5034647;28;20116;-62
2022/12/04 01:51:26;;;;;;;47.10;24.53;;;4.20;68.60;;;;;;5033481;28;20032;-62
2022/12/04 01:53:56;;;;;;;53.03;24.70;;;4.20;68.60;;;;;;5034402;28;20033;-62
2022/12/04 01:56:29;;;;;;;50.57;25.07;;;4.20;68.70;;;;;;5035283;28;20040;-62
2022/12/04 01:59:00;;;;;;;53.90;26.30;;;4.20;68.80;;;;;;5033796;28;20037;-62
2022/12/04 02:01:28;;;;;;;49.30;26.10;;;4.20;69.50;;;;;;5047415;28;20386;-61
2022/12/04 02:03:54;;;;;;;52.27;26.03;;;4.20;68.80;;;;;;5033212;28;20064;-62
2022/12/04 02:06:20;;;;;;;54.00;26.70;;;4.20;68.80;;;;;;5017611;28;20041;-62
2022/12/04 02:08:45;;;;;;;51.47;25.87;;;4.20;68.80;;;;;;5032682;28;20067;-62
2022/12/04 02:11:30;;;;;;;53.70;27.47;;;4.20;68.80;;;;;;5034248;28;20022;-62
2022/12/04 02:14:04;;;;;;;48.67;23.63;;;4.20;68.80;;;;;;5032554;28;20025;-62
2022/12/04 02:16:58;;;;;;;53.70;27.27;;;4.20;68.80;;;;;;5034589;28;20041;-62
2022/12/04 02:19:50;;;;;;;53.30;26.30;;;4.20;68.90;;;;;;5032721;28;20041;-62
2022/12/04 02:22:24;;;;;;;48.45;25.48;;;4.20;68.80;;;;;;5032081;28;20033;-62
2022/12/04 02:25:05;;;;;;;54.30;27.30;;;4.10;68.80;;;;;;5033772;28;20069;-62
2022/12/04 02:27:40;;;;;;;52.08;27.65;;;4.20;69.00;;;;;;5033820;28;20444;-62
2022/12/04 02:30:12;;;;;;;48.77;24.63;;;4.10;68.90;;;;;;5033797;28;20037;-62
2022/12/04 02:32:46;;;;;;;50.00;24.50;;;4.20;69.00;;;;;;5033407;28;20075;-62
2022/12/04 02:35:35;;;;;;;50.43;24.67;;;4.20;69.00;;;;;;5033094;28;20081;-62
2022/12/04 02:38:20;;;;;;;52.57;26.77;;;4.10;69.60;;;;;;5032971;28;20018;-62
2022/12/04 02:41:07;;;;;;;48.77;25.40;;;4.20;69.00;;;;;;5041107;28;20029;-62
2022/12/04 02:43:38;;;;;;;53.53;24.37;;;4.10;69.00;;;;;;5031109;28;20022;-63
2022/12/04 02:46:07;;;;;;;;;;;4.20;69.00;;;;;;5034520;28;20026;-62
2022/12/04 02:48:36;;;;;;;46.47;23.30;;;4.20;69.00;;;;;;5034310;28;19924;-62
2022/12/04 02:51:05;;;;;;;43.37;22.23;;;4.10;69.00;;;;;;5031711;28;20030;-62
2022/12/04 02:53:36;;;;;;;52.30;25.47;;;4.20;69.10;;;;;;5033029;28;20068;-62
2022/12/04 02:56:16;;;;;;;44.33;24.58;;;4.10;69.00;;;;;;5033505;28;20030;-62
2022/12/04 02:58:48;;;;;;;49.20;25.13;;;4.10;69.00;;;;;;5032002;28;20036;-62
2022/12/04 03:01:20;;;;;;;51.90;23.97;;;4.10;69.10;;;;;;5033439;28;20029;-62
2022/12/04 03:04:08;;;;;;;48.20;25.10;;;4.10;69.10;;;;;;5033855;28;20025;-62
2022/12/04 03:06:38;;;;;;;48.40;24.83;;;4.20;69.20;;;;;;5031594;28;20343;-62
2022/12/04 03:09:12;;;;;;;52.37;27.30;;;4.10;69.20;;;;;;5033514;28;20041;-61
2022/12/04 03:11:41;;;;;;;51.73;26.03;;;4.20;69.20;;;;;;5041180;28;20034;-62
2022/12/04 03:14:18;;;;;;;51.23;25.90;;;4.10;69.20;;;;;;5032773;28;20021;-62
2022/12/04 03:16:45;;;;;;;51.00;25.83;;;4.20;69.30;;;;;;5033193;28;20025;-62
2022/12/04 03:19:17;;;;;;;47.67;25.27;;;4.20;69.20;;;;;;5033568;28;20072;-62
2022/12/04 03:21:51;;;;;;;48.65;25.17;;;4.20;69.30;;;;;;5031049;28;20045;-62
2022/12/04 03:24:30;;;;;;;53.97;26.30;;;4.20;69.30;;;;;;5032331;28;20044;-62
2022/12/04 03:27:09;;;;;;;52.87;26.17;;;4.20;69.30;;;;;;5031570;28;20037;-62
2022/12/04 03:29:41;;;;;;;54.20;25.33;;;4.20;69.40;;;;;;5030918;28;20025;-62
2022/12/04 03:32:24;;;;;;;51.40;26.80;;;4.20;69.30;;;;;;5028413;28;20036;-62
2022/12/04 03:35:00;;;;;;;52.63;25.63;;;4.20;69.30;;;;;;5032419;28;20069;-62
2022/12/04 03:37:53;;;;;;;46.87;24.17;;;4.10;69.30;;;;;;5032934;28;20029;-62
2022/12/04 03:40:19;;;;;;;51.47;25.93;;;4.20;69.40;;;;;;5032758;28;20029;-62
2022/12/04 03:43:07;;;;;;;50.03;25.10;;;4.20;69.40;;;;;;5032675;28;20088;-62
2022/12/04 03:45:47;;;;;;;47.80;23.83;;;4.10;69.30;;;;;;5033577;28;20040;-61
2022/12/04 03:48:25;;;;;;;50.03;25.70;;;4.10;69.40;;;;;;5033477;28;20026;-61
2022/12/04 03:51:05;;;;;;;57.87;26.27;;;4.10;69.40;;;;;;5015927;28;20469;-62
2022/12/04 03:54:10;;;;;;;49.00;25.33;;;4.10;69.40;;;;;;5019418;28;20033;-62
2022/12/04 03:56:40;;;;;;;48.30;25.33;;;4.20;69.50;;;;;;5032573;28;20082;-62
2022/12/04 03:59:35;;;;;;;52.20;24.73;;;4.10;69.40;;;;;;5039621;28;20042;-62
2022/12/04 04:02:03;;;;;;;50.33;26.07;;;4.10;70.10;;;;;;5031297;28;20041;-62
2022/12/04 04:04:36;;;;;;;51.57;26.10;;;4.20;69.50;;;;;;5033586;28;20029;-62
2022/12/04 04:07:27;;;;;;;48.83;24.30;;;4.10;69.50;;;;;;5032416;28;20146;-62
2022/12/04 04:09:57;;;;;;;51.13;26.00;;;4.10;70.20;;;;;;5031228;28;20049;-62
2022/12/04 04:12:27;;;;;;;51.17;25.93;;;4.10;69.70;;;;;;5027902;28;20038;-62
2022/12/04 04:26:43;;;;;;;48.97;26.03;;;4.10;69.70;;;;;;5033930;28;20128;-62
2022/12/04 04:29:09;;;;;;;49.90;24.53;;;4.10;69.70;;;;;;5034933;28;20095;-62
2022/12/04 04:31:41;;;;;;;49.07;25.70;;;4.10;69.70;;;;;;5015912;28;20132;-62
2022/12/04 04:34:21;;;;;;;;;;;4.10;69.80;;;;;;5017969;28;20041;-62
2022/12/04 04:37:04;;;;;;;43.00;21.83;;;4.00;69.80;;;;;;5033819;28;20019;-62
2022/12/04 04:39:36;;;;;;;48.00;24.43;;;4.00;69.80;;;;;;5033749;28;20133;-62
2022/12/04 04:42:20;;;;;;;50.33;24.57;;;4.00;69.90;;;;;;5025807;28;20038;-62
2022/12/04 04:44:48;;;;;;;52.63;24.90;;;4.00;69.90;;;;;;5034978;28;20060;-61
2022/12/04 04:47:29;;;;;;;50.33;26.00;;;4.00;69.90;;;;;;5036059;28;20041;-62
2022/12/04 04:49:57;;;;;;;48.10;26.02;;;4.00;69.90;;;;;;5034714;28;20170;-62
2022/12/04 04:52:23;;;;;;;53.00;27.47;;;4.10;70.00;;;;;;5035965;28;20351;-62
2022/12/04 04:54:49;;;;;;;48.90;25.23;;;4.10;69.90;;;;;;5035038;28;20079;-62
2022/12/04 04:57:29;;;;;;;46.27;25.27;;;4.10;69.90;;;;;;5036375;28;20029;-62
2022/12/04 04:59:55;;;;;;;51.80;25.47;;;4.10;70.50;;;;;;5034168;28;20094;-62
2022/12/04 05:02:21;;;;;;;49.23;25.57;;;4.10;69.90;;;;;;5023051;28;20112;-62
2022/12/04 05:04:47;;;;;;;51.17;25.80;;;4.00;69.90;;;;;;5035493;28;20414;-62
2022/12/04 05:07:13;;;;;;;47.67;25.10;;;4.00;70.00;;;;;;5035493;28;20323;-62
2022/12/04 05:09:38;;;;;;;50.73;26.27;;;4.00;70.00;;;;;;5034861;28;20034;-62
2022/12/04 05:12:04;;;;;;;50.30;26.87;;;4.00;70.00;;;;;;5034075;28;20025;-61
2022/12/04 05:14:30;;;;;;;50.80;25.33;;;4.00;70.00;;;;;;5025953;28;20025;-62
2022/12/04 05:16:55;;;;;;;50.93;26.27;;;4.10;70.00;;;;;;5036382;28;20124;-62
2022/12/04 05:22:05;;;;;;;49.77;25.27;;;4.10;70.00;;;;;;5034837;28;20045;-62
2022/12/04 05:24:30;;;;;;;50.37;25.47;;;4.10;70.00;;;;;;5034771;28;20048;-62
2022/12/04 05:26:56;;;;;;;50.43;25.30;;;4.00;70.00;;;;;;5035019;28;20425;-62
2022/12/04 05:29:22;;;;;;;46.73;24.27;;;4.00;70.00;;;;;;5034712;28;20029;-62
2022/12/04 05:31:47;;;;;;;50.33;25.50;;;4.00;70.00;;;;;;5034262;28;20030;-62
2022/12/04 05:34:13;;;;;;;50.40;24.93;;;4.00;70.10;;;;;;5033971;28;20021;-62
2022/12/04 05:36:38;;;;;;;52.10;25.83;;;4.10;70.20;;;;;;5035975;28;20160;-62
2022/12/04 05:39:04;;;;;;;55.00;26.27;;;4.00;70.10;;;;;;5034040;28;20531;-62
2022/12/04 05:41:30;;;;;;;48.90;24.10;;;4.10;70.10;;;;;;5043554;28;20437;-62
2022/12/04 05:43:55;;;;;;;51.97;26.90;;;4.00;70.10;;;;;;5035171;28;20033;-62
2022/12/04 05:46:21;;;;;;;45.93;24.93;;;4.10;70.20;;;;;;5034808;28;20027;-62
2022/12/04 05:48:46;;;;;;;45.87;23.57;;;4.10;70.20;;;;;;5049600;28;20373;-62
2022/12/04 05:51:12;;;;;;;44.83;23.40;;;4.10;70.20;;;;;;5034036;28;20033;-62
2022/12/04 05:53:38;;;;;;;48.50;24.87;;;4.00;70.10;;;;;;5034315;28;20130;-62
2022/12/04 05:56:06;;;;;;;42.43;23.50;;;4.00;70.10;;;;;;5034489;28;20040;-61
2022/12/04 05:58:37;;;;;;;46.50;24.60;;;4.10;70.20;;;;;;5035330;28;20029;-62
2022/12/04 06:01:14;;;;;;;45.95;23.65;;;4.00;70.20;;;;;;5033593;28;20025;-62
2022/12/04 06:03:40;;;;;;;49.40;23.57;;;4.00;70.20;;;;;;5034980;28;20025;-62
2022/12/04 06:06:14;;;;;;;49.37;25.20;;;4.10;70.20;;;;;;5033366;28;20033;-62
2022/12/04 06:08:40;;;;;;;46.53;23.13;;;4.10;70.20;;;;;;5033431;28;20399;-62
2022/12/04 06:11:13;;;;;;;45.97;24.23;;;4.10;70.90;;;;;;5031519;28;20033;-62
2022/12/04 06:13:41;;;;;;;48.67;25.00;;;4.10;70.20;;;;;;5035134;28;20091;-62
2022/12/04 06:16:18;;;;;;;48.03;22.93;;;4.10;70.20;;;;;;5033952;28;20032;-62
2022/12/04 06:18:48;;;;;;;44.37;23.33;;;4.10;70.30;;;;;;5033901;28;20409;-62
2022/12/04 06:21:14;;;;;;;43.57;22.90;;;4.00;70.30;;;;;;5033421;28;20060;-62
2022/12/04 06:23:39;;;;;;;50.17;25.03;;;4.00;70.40;;;;;;5034444;28;20025;-62
2022/12/04 06:26:07;;;;;;;43.83;23.10;;;4.00;70.40;;;;;;5033586;28;20044;-62
2022/12/04 06:28:34;;;;;;;46.70;23.37;;;4.00;70.40;;;;;;5031765;28;20036;-62
2022/12/04 06:31:02;;;;;;;47.23;24.67;;;4.00;70.40;;;;;;5032620;28;20032;-62
2022/12/04 06:33:27;;;;;;;44.97;22.67;;;4.00;70.50;;;;;;5032670;28;20409;-62
2022/12/04 06:36:13;;;;;;;47.43;24.60;;;4.00;70.50;;;;;;5030825;28;20073;-62
2022/12/04 06:38:39;;;;;;;47.23;23.50;;;4.00;70.40;;;;;;5029234;28;20021;-62
2022/12/04 06:41:06;;;;;;;50.30;23.70;;;4.00;70.40;;;;;;5033021;28;20030;-62
2022/12/04 06:43:32;;;;;;;44.07;22.40;;;4.00;70.40;;;;;;5037220;28;20062;-62
2022/12/04 06:46:10;;;;;;;44.33;23.30;;;4.00;70.50;;;;;;5031294;28;20327;-62
2022/12/04 06:48:36;;;;;;;45.17;22.93;;;4.00;70.50;;;;;;5033045;28;20117;-62
2022/12/04 06:51:13;;;;;;;45.87;24.27;;;4.00;70.60;;;;;;5033613;28;20036;-62
2022/12/04 06:53:39;;;;;;;48.80;23.53;;;4.00;70.60;;;;;;5032056;28;20105;-62
2022/12/04 06:56:08;;;;;;;46.70;24.10;;;4.00;70.60;;;;;;5029090;28;20022;-62
2022/12/04 06:58:34;;;;;;;45.30;22.47;;;4.00;70.60;;;;;;5030724;28;20029;-62
2022/12/04 07:01:10;;;;;;;45.60;23.30;;;4.10;70.60;;;;;;5030313;28;20049;-62
2022/12/04 07:03:37;;;;;;;43.50;22.87;;;4.10;70.60;;;;;;5031022;28;20021;-62
2022/12/04 07:06:14;;;;;;;43.63;23.47;;;4.10;70.60;;;;;;5029544;28;20098;-62
2022/12/04 07:08:39;;;;;;;42.43;22.07;;;4.10;70.60;;;;;;5032034;28;20037;-62
2022/12/04 07:11:05;;;;;;;43.90;23.80;;;4.10;70.60;;;;;;5034297;28;20078;-62
2022/12/04 07:13:31;;;;;;;45.20;22.57;;;4.10;70.60;;;;;;5032269;28;20053;-62
2022/12/04 07:16:00;;;;;;;47.93;23.53;;;4.10;70.60;;;;;;5033154;28;20040;-62
2022/12/04 07:18:26;;;;;;;46.73;22.97;;;4.10;70.60;;;;;;5033086;28;20037;-62
2022/12/04 07:20:52;;;;;;;42.00;21.97;;;4.10;70.60;;;;;;5032704;28;20041;-63
2022/12/04 07:23:18;;;;;;;41.17;22.93;;;4.10;70.60;;;;;;5039283;28;20040;-62
2022/12/04 07:25:43;;;;;;;40.47;20.67;;;4.10;70.60;;;;;;5029222;28;20441;-62
2022/12/04 07:28:09;;;;;;;49.23;22.17;;;4.10;70.60;;;;;;5032221;28;20029;-62
2022/12/04 07:30:36;;;;;;;43.53;22.00;;;4.10;70.60;;;;;;5033990;28;20037;-62
2022/12/04 07:33:02;;;;;;;46.20;21.43;;;4.00;70.60;;;;;;5033065;28;20029;-62
2022/12/04 07:35:28;;;;;;;40.70;20.17;;;4.00;70.70;;;;;;5032942;28;20117;-62
2022/12/04 07:37:53;;;;;;;47.47;22.60;;;4.00;70.70;;;;;;5029835;28;20036;-62
2022/12/04 07:40:19;;;;;;;43.37;21.90;;;4.00;70.80;;;;;;5033943;28;20124;-62
2022/12/04 07:42:45;;;;;;;42.83;21.60;;;4.00;70.70;;;;;;5048508;28;20070;-63
2022/12/04 07:45:10;;;;;;;47.20;23.43;;;4.00;70.80;;;;;;5033841;28;20111;-62
2022/12/04 07:47:36;;;;;;;41.97;21.20;;;4.00;70.80;;;;;;5030788;28;20029;-61
2022/12/04 07:50:03;;;;;;;40.50;21.70;;;4.00;70.70;;;;;;5031948;28;20025;-63
2022/12/04 07:52:29;;;;;;;45.50;22.10;;;4.10;70.90;;;;;;5033856;28;20029;-63
2022/12/04 07:54:54;;;;;;;40.40;20.87;;;4.10;70.80;;;;;;5032528;28;20085;-63
2022/12/04 07:57:20;;;;;;;43.30;21.60;;;4.20;70.80;;;;;;5034023;28;20447;-63
2022/12/04 07:59:45;;;;;;;44.00;21.57;;;4.20;70.70;;;;;;5043889;28;20083;-64
2022/12/04 08:02:12;;;;;;;42.87;22.57;;;4.30;70.70;;;;;;5037593;28;20060;-64
2022/12/04 08:04:38;;;;;;;38.70;21.63;;;4.20;70.60;;;;;;5036869;28;20434;-64
2022/12/04 08:07:03;;;;;;;41.37;19.77;;;4.20;70.70;;;;;;5027108;28;20041;-64
2022/12/04 08:09:29;;;;;;;40.07;20.67;;;4.20;70.70;;;;;;5035856;28;20029;-63
2022/12/04 08:11:55;;;;;;;43.37;21.70;;;4.20;70.80;;;;;;5035370;28;20036;-63
2022/12/04 08:14:20;;;;;;;42.63;22.07;;;4.20;70.80;;;;;;5035087;28;20026;-63
2022/12/04 08:16:48;;;;;;;45.40;23.37;;;4.20;70.80;;;;;;5035929;28;20105;-64
2022/12/04 08:19:14;;;;;;;43.50;21.77;;;4.20;70.90;;;;;;5036158;28;20029;-64
2022/12/04 08:21:39;;;;;;;41.23;21.77;;;4.20;70.90;;;;;;5036985;28;20049;-63
2022/12/04 08:24:05;;;;;;;41.43;20.33;;;4.20;70.90;;;;;;5033667;28;20033;-64
2022/12/04 08:26:32;;;;;;;38.97;20.53;;;4.20;70.90;;;;;;5034556;28;20034;-64
2022/12/04 08:29:02;;;;;;;39.47;20.57;;;4.20;71.60;;;;;;5034726;28;20030;-64
2022/12/04 08:31:31;;;;;;;41.77;21.57;;;4.20;71.10;;;;;;5036465;28;20057;-64
2022/12/04 08:33:58;;;;;;;40.13;19.23;;;4.10;71.10;;;;;;5037076;28;20040;-64
2022/12/04 08:36:24;;;;;;;45.10;20.63;;;4.10;71.10;;;;;;5029267;28;20028;-64
2022/12/04 08:38:49;;;;;;;43.67;22.03;;;4.20;71.10;;;;;;5037028;28;20030;-65
2022/12/04 08:41:18;;;;;;;44.43;22.20;;;4.20;71.10;;;;;;5036027;28;20469;-64
2022/12/04 08:43:43;;;;;;;39.20;21.27;;;4.20;71.20;;;;;;5045623;28;20172;-64
2022/12/04 08:46:14;;;;;;;40.27;19.20;;;4.20;71.10;;;;;;5031705;28;20108;-64
2022/12/04 08:48:40;;;;;;;41.70;20.67;;;4.20;71.20;;;;;;5034664;28;20454;-64
2022/12/04 08:51:11;;;;;;;44.87;21.40;;;4.20;71.20;;;;;;5036733;28;20028;-65
2022/12/04 08:53:37;;;;;;;40.93;22.33;;;4.20;71.20;;;;;;5036820;28;20435;-64
2022/12/04 08:56:03;;;;;;;44.40;22.37;;;4.20;71.20;;;;;;5035646;28;20032;-64
2022/12/04 08:58:29;;;;;;;40.03;20.40;;;4.10;71.20;;;;;;5036693;28;20034;-64
2022/12/04 09:00:54;;;;;;;38.10;20.43;;;4.20;71.30;;;;;;5033492;28;20063;-64
2022/12/04 09:03:20;;;;;;;40.33;20.27;;;4.20;71.30;;;;;;5035341;28;20018;-63
2022/12/04 09:05:47;;;;;;;38.60;19.87;;;4.20;71.30;;;;;;5034213;28;20022;-63
2022/12/04 09:08:14;;;;;;;41.70;21.00;;;4.20;71.30;;;;;;5035002;28;20461;-64
2022/12/04 09:10:41;;;;;;;37.30;18.80;;;4.20;71.20;;;;;;5035456;28;20103;-63
2022/12/04 09:13:07;;;;;;;37.77;19.60;;;4.20;71.20;;;;;;5036147;28;20036;-63
2022/12/04 09:15:33;;;;;;;41.80;21.23;;;4.20;71.20;;;;;;5036486;28;20105;-63
2022/12/04 09:17:59;;;;;;;37.73;19.50;;;4.20;71.20;;;;;;5036435;28;20522;-63
2022/12/04 09:20:25;;;;;;;35.80;18.10;;;4.20;71.30;;;;;;5035490;28;20110;-63
2022/12/04 09:22:51;;;;;;;38.07;18.27;;;4.10;71.30;;;;;;5036058;28;20038;-63
2022/12/04 09:25:17;;;;;;;35.60;17.93;;;4.20;71.50;;;;;;5036249;28;20037;-64
2022/12/04 09:27:43;;;;;;;36.10;19.03;;;4.20;71.30;;;;;;5036132;28;20354;-63
2022/12/04 09:30:10;;;;;;;35.03;16.93;;;4.20;71.30;;;;;;5036041;28;20037;-63
2022/12/04 09:32:37;;;;;;;35.27;18.03;;;4.20;71.20;;;;;;5036239;28;20033;-63
2022/12/04 09:35:03;;;;;;;39.60;18.50;;;4.20;71.30;;;;;;5035272;28;20029;-63
2022/12/04 09:37:29;;;;;;;36.00;18.63;;;4.10;71.20;;;;;;5036245;28;20029;-63
2022/12/04 09:39:55;;;;;;;32.30;16.00;;;4.20;71.30;;;;;;5035998;28;20362;-63
2022/12/04 09:42:28;;;;;;;34.10;17.43;;;4.20;71.20;;;;;;5035975;28;20108;-63
2022/12/04 09:45:02;;;;;;;36.73;17.43;;;4.30;71.20;;;;;;5034974;28;20029;-63
2022/12/04 09:47:34;;;;;;;31.83;16.70;;;4.30;71.10;;;;;;5034851;28;20041;-63
2022/12/04 09:50:05;;;;;;;30.80;15.53;;;4.30;71.00;;;;;;5039668;28;20056;-63
2022/12/04 09:52:30;;;;;;;29.03;14.73;;;4.30;71.00;;;;;;5040301;28;20045;-63
2022/12/04 09:54:58;;;;;;;27.03;14.60;;;4.30;70.90;;;;;;5033365;28;20091;-63
2022/12/04 09:57:37;;;;;;;29.10;13.90;;;4.30;70.90;;;;;;5033024;28;20029;-63
2022/12/04 10:00:05;;;;;;;23.20;12.80;;;4.30;70.90;;;;;;5034587;28;20095;-63
2022/12/04 10:02:41;;;;;;;27.43;13.00;;;4.30;70.80;;;;;;5034949;28;20025;-63
2022/12/04 10:05:22;;;;;;;26.42;13.00;;;4.30;70.80;;;;;;5048591;28;20025;-63
2022/12/04 10:08:15;;;;;;;25.33;12.83;;;4.30;70.70;;;;;;5034907;28;20033;-63
2022/12/04 10:10:53;;;;;;;26.20;13.47;;;4.30;70.70;;;;;;5035734;28;20089;-63
2022/12/04 10:13:31;;;;;;;25.87;12.00;;;4.30;70.70;;;;;;5051173;28;20041;-63
2022/12/04 10:16:18;;;;;;;23.97;12.33;;;4.30;70.70;;;;;;5035333;28;20064;-63
2022/12/04 10:19:09;;;;;;;24.13;12.77;;;4.30;70.70;;;;;;5035695;28;20017;-63
2022/12/04 10:21:43;;;;;;;23.40;10.77;;;4.30;71.40;;;;;;5032557;28;20043;-63
2022/12/04 10:24:25;;;;;;;24.47;12.03;;;4.30;70.70;;;;;;5049361;28;20025;-63
2022/12/04 10:26:53;;;;;;;;;;;4.30;70.70;;;;;;5033976;28;20029;-65
2022/12/04 10:29:31;;;;;;;19.40;10.00;;;4.30;70.60;;;;;;5035009;28;19913;-64
2022/12/04 10:32:20;;;;;;;22.90;10.93;;;4.30;70.70;;;;;;5031916;28;20036;-63
2022/12/04 10:34:50;;;;;;;21.37;10.70;;;4.30;70.70;;;;;;5033589;28;20040;-63
2022/12/04 10:37:16;;;;;;;20.90;11.33;;;4.30;70.60;;;;;;5047047;28;20029;-64
2022/12/04 10:39:56;;;;;;;23.47;11.50;;;4.30;70.50;;;;;;5035214;28;20036;-63
2022/12/04 10:42:36;;;;;;;21.57;10.23;;;4.40;70.60;;;;;;5034994;28;20037;-63
2022/12/04 10:45:04;;;;;;;20.87;11.57;;;4.40;70.50;;;;;;5035076;28;20041;-63
2022/12/04 10:47:30;;;;;;;20.97;11.23;;;4.40;70.50;;;;;;5034926;28;20060;-63
2022/12/04 10:50:03;;;;;;;23.63;11.73;;;4.40;70.50;;;;;;5033966;28;20443;-63
2022/12/04 10:52:29;;;;;;;20.40;10.60;;;4.40;70.50;;;;;;5050406;28;20029;-63
2022/12/04 10:54:58;;;;;;;19.73;10.27;;;4.40;70.50;;;;;;5050604;28;20048;-63
2022/12/04 10:57:35;;;;;;;21.83;11.07;;;4.40;70.50;;;;;;5034828;28;20041;-63
2022/12/04 11:00:01;;;;;;;19.63;10.30;;;4.50;70.40;;;;;;5034837;28;20033;-63
2022/12/04 11:02:33;;;;;;;22.03;11.67;;;4.50;70.40;;;;;;5034432;28;20029;-63
2022/12/04 11:05:03;;;;;;;20.60;10.77;;;4.50;70.30;;;;;;5033780;28;20405;-63
2022/12/04 11:07:36;;;;;;;20.83;10.27;;;4.50;70.30;;;;;;5033727;28;20026;-63
2022/12/04 11:10:28;;;;;;;19.13;10.03;;;4.50;70.30;;;;;;5034115;28;20037;-63
2022/12/04 11:12:59;;;;;;;24.33;11.67;;;4.50;70.30;;;;;;5030097;28;20077;-63
2022/12/04 11:15:25;;;;;;;20.73;9.77;;;4.40;70.30;;;;;;5034477;28;20315;-63
2022/12/04 11:17:51;;;;;;;19.97;9.80;;;4.40;70.40;;;;;;5034133;28;20114;-63
2022/12/04 11:20:23;;;;;;;18.70;10.53;;;4.40;70.40;;;;;;5034104;28;20049;-63
2022/12/04 11:22:55;;;;;;;20.53;10.80;;;4.50;70.50;;;;;;5036192;28;20065;-63
2022/12/04 11:25:24;;;;;;;22.03;10.77;;;4.50;70.40;;;;;;5036476;28;20033;-63
2022/12/04 11:27:53;;;;;;;21.07;10.83;;;4.60;70.40;;;;;;5043003;28;20032;-63
2022/12/04 11:30:29;;;;;;;21.57;11.10;;;4.60;70.40;;;;;;5045643;28;20049;-63
2022/12/04 11:32:56;;;;;;;24.43;11.70;;;4.60;70.30;;;;;;5048242;28;20413;-63
2022/12/04 11:35:25;;;;;;;19.50;10.57;;;4.60;70.20;;;;;;5050189;28;20028;-63
2022/12/04 11:38:00;;;;;;;21.63;11.10;;;4.70;70.30;;;;;;5048216;28;20108;-63
2022/12/04 11:40:26;;;;;;;19.40;9.97;;;4.70;70.20;;;;;;5019842;28;20057;-63
2022/12/04 11:43:08;;;;;;;18.93;11.13;;;4.70;70.20;;;;;;5062358;28;20361;-63
2022/12/04 11:45:34;;;;;;;20.07;11.40;;;4.70;70.10;;;;;;5028604;28;20045;-63
2022/12/04 11:48:03;;;;;;;20.83;11.00;;;4.70;70.10;;;;;;5052909;28;20061;-63
2022/12/04 11:50:51;;;;;;;19.00;10.20;;;4.70;70.10;;;;;;5050981;28;20025;-63
2022/12/04 11:53:34;;;;;;;18.07;10.50;;;4.70;70.10;;;;;;5048750;28;20032;-63
2022/12/04 11:56:28;;;;;;;19.33;9.90;;;4.70;70.10;;;;;;5045540;28;20026;-63
2022/12/04 11:59:14;;;;;;;19.20;10.17;;;4.70;70.10;;;;;;5052366;28;20029;-63
2022/12/04 12:01:49;;;;;;;20.57;11.10;;;4.70;70.10;;;;;;5053631;28;20500;-63
2022/12/04 12:04:30;;;;;;;19.43;10.77;;;4.70;70.10;;;;;;5053920;28;20325;-63
2022/12/04 12:07:33;;;;;;;19.13;10.38;;;4.70;70.10;;;;;;5037501;28;20099;-63
2022/12/04 12:10:03;;;;;;;18.87;11.27;;;4.70;70.20;;;;;;5043966;28;20064;-63
2022/12/04 12:13:11;;;;;;;20.43;11.40;;;4.70;70.20;;;;;;5036872;28;20666;-63
2022/12/04 12:15:49;;;;;;;18.87;10.03;;;4.70;70.10;;;;;;5028970;28;20021;-63
2022/12/04 12:18:18;;;;;;;22.73;11.90;;;4.70;70.10;;;;;;5033257;28;20103;-63
2022/12/04 12:21:15;;;;;;;19.33;11.10;;;4.70;70.20;;;;;;5033028;28;20049;-63
2022/12/04 12:24:12;;;;;;;19.10;10.33;;;4.70;70.20;;;;;;5032518;28;20064;-66
2022/12/04 12:26:46;;;;;;;19.33;10.13;;;4.70;70.10;;;;;;5033337;28;20060;-64
2022/12/04 12:29:45;;;;;;;19.33;9.93;;;4.70;70.10;;;;;;5018358;28;20131;-63
2022/12/04 12:32:32;;;;;;;18.27;10.27;;;4.70;70.10;;;;;;5044144;28;20045;-63
2022/12/04 12:34:59;;;;;;;19.70;10.83;;;4.70;70.10;;;;;;5023665;28;20037;-63
2022/12/04 12:37:31;;;;;;;19.30;10.87;;;4.70;70.10;;;;;;5030319;28;20037;-63
2022/12/04 12:40:28;;;;;;;19.83;11.63;;;4.70;70.10;;;;;;5031843;28;20036;-63
2022/12/04 12:43:01;;;;;;;18.70;10.10;;;4.70;70.20;;;;;;5033792;28;20043;-63
2022/12/04 12:46:06;;;;;;;19.70;10.90;;;4.70;70.20;;;;;;5036238;28;20332;-63
2022/12/04 12:48:35;;;;;;;20.03;9.57;;;4.80;70.20;;;;;;5033520;28;20145;-63
2022/12/04 12:51:11;;;;;;;18.73;10.23;;;4.80;70.20;;;;;;5035390;28;20120;-63
2022/12/04 12:53:41;;;;;;;21.13;10.90;;;4.80;70.30;;;;;;5035870;28;20025;-63
2022/12/04 12:56:10;;;;;;;17.20;10.70;;;4.80;70.30;;;;;;5031450;28;20414;-63
2022/12/04 12:58:41;;;;;;;20.83;10.67;;;4.80;70.30;;;;;;5035679;28;20049;-63
2022/12/04 13:01:22;;;;;;;18.08;10.30;;;4.80;70.30;;;;;;5035637;28;20056;-63
2022/12/04 13:04:02;;;;;;;17.67;9.43;;;4.80;70.30;;;;;;5031181;28;20030;-63
2022/12/04 13:06:36;;;;;;;20.40;10.83;;;4.80;70.30;;;;;;5035823;28;20032;-63
2022/12/04 13:09:20;;;;;;;20.07;10.90;;;4.80;70.30;;;;;;5034094;28;20302;-63
2022/12/04 13:11:50;;;;;;;19.00;10.17;;;4.80;70.30;;;;;;5041845;28;20394;-63
2022/12/04 13:14:15;;;;;;;20.43;10.10;;;4.80;70.40;;;;;;5037669;28;20163;-63